createdAt,value
2022-12-15T00:00:23.845Z,53.65
2022-12-15T00:03:30.572Z,55.15
2022-12-15T00:06:19.550Z,57.82
2022-12-15T00:09:11.157Z,59.69
2022-12-15T00:12:00.385Z,61.10
2022-12-15T00:14:46.719Z,62.25
2022-12-15T00:17:33.254Z,64.22
2022-12-15T00:20:19.995Z,59.40
2022-12-15T00:23:09.061Z,53.32
2022-12-15T00:25:55.574Z,55.15
2022-12-15T00:28:41.627Z,57.38
2022-12-15T00:31:28.028Z,58.97
2022-12-15T00:34:14.442Z,60.33
2022-12-15T00:37:01.135Z,61.48
2022-12-15T00:39:28.959Z,62.48
2022-12-15T00:41:56.688Z,63.74
2022-12-15T00:44:25.049Z,58.39
2022-12-15T00:46:55.756Z,52.93
2022-12-15T00:49:44.360Z,54.27
2022-12-15T00:52:32.169Z,56.71
2022-12-15T00:55:19.016Z,58.42
2022-12-15T00:58:05.601Z,59.80
2022-12-15T01:00:52.594Z,61.05
2022-12-15T01:03:43.186Z,62.29
2022-12-15T01:06:34.250Z,63.97
2022-12-15T01:09:21.915Z,56.66
2022-12-15T01:12:08.235Z,53.73
2022-12-15T01:14:54.702Z,56.35
2022-12-15T01:17:40.956Z,58.35
2022-12-15T01:20:18.855Z,59.87
2022-12-15T01:22:54.297Z,61.13
2022-12-15T01:25:25.586Z,62.38
2022-12-15T01:27:55.249Z,64.23
2022-12-15T01:30:26.345Z,60.73
2022-12-15T01:32:56.465Z,53.35
2022-12-15T01:35:26.088Z,53.66
2022-12-15T01:37:53.821Z,55.93
2022-12-15T01:40:40.641Z,57.64
2022-12-15T01:43:21.073Z,58.97
2022-12-15T01:46:09.949Z,60.11
2022-12-15T01:49:00.791Z,61.24
2022-12-15T01:51:43.026Z,62.18
2022-12-15T01:54:20.149Z,64.14
2022-12-15T01:56:55.922Z,59.92
2022-12-15T01:59:32.890Z,52.78
2022-12-15T02:02:01.120Z,53.77
2022-12-15T02:04:29.168Z,56.19
2022-12-15T02:06:56.956Z,58.16
2022-12-15T02:09:26.816Z,59.67
2022-12-15T02:12:48.750Z,61.00
2022-12-15T02:16:25.655Z,62.77
2022-12-15T02:19:31.108Z,61.73
2022-12-15T02:22:25.980Z,53.01
2022-12-15T02:25:22.339Z,54.00
2022-12-15T02:28:04.852Z,56.72
2022-12-15T02:31:10.605Z,58.63
2022-12-15T02:33:46.903Z,60.10
2022-12-15T02:36:25.931Z,61.34
2022-12-15T02:38:53.733Z,62.94
2022-12-15T02:41:36.828Z,63.57
2022-12-15T02:44:16.260Z,56.67
2022-12-15T02:47:13.756Z,54.32
2022-12-15T02:50:06.833Z,57.06
2022-12-15T02:52:52.532Z,59.11
2022-12-15T02:55:58.950Z,60.53
2022-12-15T02:59:11.318Z,61.85
2022-12-15T03:01:54.397Z,63.93
2022-12-15T03:04:23.009Z,59.55
2022-12-15T03:07:00.896Z,53.46
2022-12-15T03:09:31.898Z,54.58
2022-12-15T03:11:59.971Z,56.81
2022-12-15T03:14:28.233Z,58.51
2022-12-15T03:16:56.583Z,59.84
2022-12-15T03:19:24.558Z,60.80
2022-12-15T03:21:52.972Z,61.55
2022-12-15T03:24:20.784Z,62.58
2022-12-15T03:26:51.921Z,63.35
2022-12-15T03:29:20.020Z,57.46
2022-12-15T03:31:49.884Z,51.35
2022-12-15T03:34:18.351Z,45.93
2022-12-15T03:36:46.548Z,40.10
2022-12-15T03:39:14.444Z,41.18
2022-12-15T03:41:42.580Z,44.68
2022-12-15T03:44:10.402Z,47.62
2022-12-15T03:46:38.244Z,49.91
2022-12-15T03:49:06.295Z,51.77
2022-12-15T03:51:34.314Z,53.22
2022-12-15T03:54:02.095Z,54.68
2022-12-15T03:56:29.895Z,55.91
2022-12-15T03:58:57.856Z,56.85
2022-12-15T04:01:31.379Z,57.82
2022-12-15T04:04:01.360Z,59.25
2022-12-15T04:06:30.483Z,60.70
2022-12-15T04:08:58.333Z,62.25
2022-12-15T04:11:26.231Z,57.39
2022-12-15T04:13:54.154Z,49.55
2022-12-15T04:16:22.022Z,43.94
2022-12-15T04:19:13.026Z,39.30
2022-12-15T04:21:40.858Z,39.54
2022-12-15T04:24:27.368Z,42.94
2022-12-15T04:27:13.914Z,45.99
2022-12-15T04:30:00.387Z,48.37
2022-12-15T04:32:49.942Z,50.41
2022-12-15T04:35:36.474Z,52.25
2022-12-15T04:38:22.898Z,53.83
2022-12-15T04:41:09.539Z,55.42
2022-12-15T04:43:55.846Z,56.89
2022-12-15T04:46:42.532Z,57.89
2022-12-15T04:49:28.566Z,59.98
2022-12-15T04:52:16.543Z,54.30
2022-12-15T04:55:03.309Z,45.67
2022-12-15T04:57:49.528Z,38.78
2022-12-15T05:00:36.171Z,37.63
2022-12-15T05:03:27.362Z,41.77
2022-12-15T05:06:13.968Z,45.29
2022-12-15T05:09:00.477Z,48.00
2022-12-15T05:11:47.201Z,50.09
2022-12-15T05:14:33.590Z,51.80
2022-12-15T05:17:19.646Z,53.53
2022-12-15T05:20:05.927Z,55.20
2022-12-15T05:22:52.765Z,57.18
2022-12-15T05:25:39.043Z,58.93
2022-12-15T05:28:25.807Z,57.67
2022-12-15T05:31:12.040Z,48.75
2022-12-15T05:33:39.942Z,42.12
2022-12-15T05:36:08.289Z,37.27
2022-12-15T05:38:36.067Z,37.91
2022-12-15T05:41:03.955Z,41.69
2022-12-15T05:43:31.955Z,44.89
2022-12-15T05:46:04.598Z,47.29
2022-12-15T05:48:32.468Z,49.40
2022-12-15T05:51:08.317Z,51.11
2022-12-15T05:53:41.265Z,53.00
2022-12-15T05:56:14.410Z,54.65
2022-12-15T05:58:45.471Z,55.94
2022-12-15T06:01:17.373Z,57.33
2022-12-15T06:03:45.890Z,59.26
2022-12-15T06:06:14.062Z,56.85
2022-12-15T06:08:43.409Z,49.72
2022-12-15T06:11:17.159Z,44.61
2022-12-15T06:13:45.306Z,40.91
2022-12-15T06:16:19.779Z,36.92
2022-12-15T06:18:51.212Z,37.98
2022-12-15T06:21:23.710Z,41.85
2022-12-15T06:23:52.503Z,45.20
2022-12-15T06:26:25.720Z,48.00
2022-12-15T06:28:57.056Z,50.43
2022-12-15T06:31:26.818Z,52.59
2022-12-15T06:34:01.301Z,54.38
2022-12-15T06:36:31.043Z,56.30
2022-12-15T06:39:01.036Z,57.44
2022-12-15T06:41:32.303Z,58.66
2022-12-15T06:44:01.073Z,60.03
2022-12-15T06:46:31.573Z,61.57
2022-12-15T06:48:59.764Z,57.22
2022-12-15T06:51:28.111Z,50.28
2022-12-15T06:53:56.455Z,45.27
2022-12-15T06:56:34.819Z,41.49
2022-12-15T06:59:05.183Z,38.51
2022-12-15T07:01:33.775Z,41.49
2022-12-15T07:04:03.215Z,44.98
2022-12-15T07:06:36.895Z,47.74
2022-12-15T07:09:13.689Z,50.28
2022-12-15T07:11:41.683Z,52.12
2022-12-15T07:14:10.263Z,53.78
2022-12-15T07:16:38.225Z,55.28
2022-12-15T07:19:06.207Z,56.72
2022-12-15T07:21:34.187Z,57.78
2022-12-15T07:24:02.754Z,58.81
2022-12-15T07:26:31.025Z,59.79
2022-12-15T07:28:58.822Z,60.76
2022-12-15T07:31:27.210Z,62.61
2022-12-15T07:33:55.213Z,60.43
2022-12-15T07:36:23.141Z,53.68
2022-12-15T07:38:51.888Z,48.50
2022-12-15T07:41:20.486Z,45.03
2022-12-15T07:43:48.778Z,42.36
2022-12-15T07:46:17.829Z,39.50
2022-12-15T07:48:50.186Z,40.60
2022-12-15T07:51:20.864Z,43.97
2022-12-15T07:53:50.842Z,46.79
2022-12-15T07:56:20.089Z,49.06
2022-12-15T07:58:48.489Z,51.01
2022-12-15T08:01:16.691Z,52.53
2022-12-15T08:03:45.875Z,54.04
2022-12-15T08:06:15.277Z,55.32
2022-12-15T08:08:44.938Z,56.67
2022-12-15T08:11:21.750Z,57.99
2022-12-15T08:14:02.710Z,59.34
2022-12-15T08:16:32.078Z,60.26
2022-12-15T08:19:00.072Z,60.99
2022-12-15T08:21:27.895Z,62.17
2022-12-15T08:23:55.748Z,64.12
2022-12-15T08:26:28.384Z,61.40
2022-12-15T08:29:32.132Z,54.34
2022-12-15T08:31:51.979Z,54.23
2022-12-15T08:34:20.683Z,56.46
2022-12-15T08:36:48.512Z,58.58
2022-12-15T08:39:16.575Z,60.02
2022-12-15T08:41:44.769Z,61.54
2022-12-15T08:44:12.697Z,63.52
2022-12-15T08:46:40.419Z,61.21
2022-12-15T08:49:08.784Z,55.04
2022-12-15T08:51:36.658Z,54.91
2022-12-15T08:54:04.614Z,57.03
2022-12-15T08:56:32.852Z,58.94
2022-12-15T08:59:02.655Z,60.29
2022-12-15T09:01:32.649Z,61.35
2022-12-15T09:04:01.501Z,63.16
2022-12-15T09:06:32.607Z,62.57
2022-12-15T09:09:07.342Z,55.38
2022-12-15T09:11:35.277Z,54.28
2022-12-15T09:14:03.635Z,56.54
2022-12-15T09:16:31.677Z,58.42
2022-12-15T09:19:00.321Z,60.03
2022-12-15T09:21:30.406Z,61.38
2022-12-15T09:24:01.902Z,62.39
2022-12-15T09:26:32.791Z,64.52
2022-12-15T09:29:02.133Z,60.86
2022-12-15T09:31:34.067Z,54.55
2022-12-15T09:34:02.388Z,55.44
2022-12-15T09:36:32.771Z,57.85
2022-12-15T09:39:02.731Z,59.85
2022-12-15T09:41:33.373Z,61.78
2022-12-15T09:44:13.972Z,64.06
2022-12-15T09:47:29.889Z,60.87
2022-12-15T09:50:04.907Z,54.71
2022-12-15T09:52:48.721Z,56.90
2022-12-15T09:55:23.845Z,59.28
2022-12-15T09:58:35.539Z,61.52
2022-12-15T10:01:30.994Z,63.53
2022-12-15T10:04:38.167Z,56.41
2022-12-15T10:07:32.205Z,55.57
2022-12-15T10:10:01.589Z,58.19
2022-12-15T10:12:33.243Z,60.34
2022-12-15T10:15:21.063Z,61.77
2022-12-15T10:18:21.698Z,64.24
2022-12-15T10:20:53.267Z,59.37
2022-12-15T10:23:21.190Z,54.19
2022-12-15T10:26:01.528Z,55.86
2022-12-15T10:29:02.159Z,58.46
2022-12-15T10:31:54.755Z,60.85
2022-12-15T10:34:31.392Z,62.58
2022-12-15T10:36:59.984Z,63.79
2022-12-15T10:39:46.010Z,57.97
2022-12-15T10:42:25.287Z,55.04
2022-12-15T10:44:58.572Z,57.47
2022-12-15T10:47:32.168Z,59.66
2022-12-15T10:53:55.310Z,63.83
2022-12-15T10:56:33.165Z,57.43
2022-12-15T10:59:35.396Z,55.90
2022-12-15T11:02:24.435Z,58.51
2022-12-15T11:05:16.828Z,60.68
2022-12-15T11:07:55.388Z,62.36
2022-12-15T11:10:51.913Z,63.64
2022-12-15T11:13:22.970Z,57.71
2022-12-15T11:15:53.363Z,54.11
2022-12-15T11:18:32.041Z,56.13
2022-12-15T11:21:11.365Z,57.81
2022-12-15T11:24:10.091Z,58.98
2022-12-15T11:27:24.922Z,60.57
2022-12-15T11:30:19.176Z,61.45
2022-12-15T11:32:57.080Z,61.89
2022-12-15T11:36:18.923Z,63.28
2022-12-15T11:39:43.032Z,56.24
2022-12-15T11:42:46.160Z,55.51
2022-12-15T11:45:48.833Z,57.76
2022-12-15T11:48:26.685Z,59.33
2022-12-15T11:51:13.433Z,60.90
2022-12-15T11:53:49.421Z,62.29
2022-12-15T11:56:43.064Z,62.84
2022-12-15T11:59:38.578Z,56.36
2022-12-15T12:02:39.846Z,53.85
2022-12-15T12:05:32.302Z,56.53
2022-12-15T12:08:15.159Z,58.69
2022-12-15T12:11:07.733Z,60.34
2022-12-15T12:14:08.047Z,61.52
2022-12-15T12:16:57.522Z,63.39
2022-12-15T12:19:33.635Z,58.71
2022-12-15T12:22:14.124Z,52.71
2022-12-15T12:24:48.915Z,54.31
2022-12-15T12:27:53.156Z,56.43
2022-12-15T12:30:26.137Z,58.18
2022-12-15T12:33:04.316Z,59.51
2022-12-15T12:35:53.214Z,60.59
2022-12-15T12:38:36.637Z,61.73
2022-12-15T12:41:12.232Z,63.39
2022-12-15T12:43:51.602Z,59.72
2022-12-15T12:46:33.467Z,52.95
2022-12-15T12:49:44.004Z,54.04
2022-12-15T12:52:22.769Z,56.62
2022-12-15T12:55:35.529Z,58.43
2022-12-15T12:58:03.574Z,59.80
2022-12-15T13:00:32.606Z,60.84
2022-12-15T13:03:30.436Z,61.93
2022-12-15T13:05:58.606Z,63.38
2022-12-15T13:08:50.998Z,59.48
2022-12-15T13:11:47.258Z,54.57
2022-12-15T13:14:26.409Z,56.64
2022-12-15T13:17:24.905Z,58.21
2022-12-15T13:20:01.409Z,59.70
2022-12-15T13:22:41.441Z,60.96
2022-12-15T13:25:40.633Z,61.96
2022-12-15T13:28:30.491Z,63.73
2022-12-15T13:31:20.196Z,58.78
2022-12-15T13:33:51.497Z,54.16
2022-12-15T13:36:40.537Z,55.92
2022-12-15T13:39:17.410Z,58.33
2022-12-15T13:44:51.957Z,60.78
2022-12-15T13:47:26.350Z,61.58
2022-12-15T13:50:18.378Z,63.23
2022-12-15T13:53:17.766Z,60.20
2022-12-15T13:55:51.672Z,54.92
2022-12-15T13:58:20.605Z,56.46
2022-12-15T14:00:57.302Z,58.23
2022-12-15T14:03:25.869Z,59.70
2022-12-15T14:05:59.488Z,61.04
2022-12-15T14:08:29.860Z,61.71
2022-12-15T14:11:06.930Z,63.34
2022-12-15T14:13:46.922Z,61.06
2022-12-15T14:16:22.198Z,55.24
2022-12-15T14:19:19.374Z,55.03
2022-12-15T14:21:58.945Z,57.54
2022-12-15T14:24:41.134Z,59.23
2022-12-15T14:27:09.270Z,60.88
2022-12-15T14:29:37.082Z,61.85
2022-12-15T14:32:05.598Z,63.63
2022-12-15T14:34:37.179Z,61.23
2022-12-15T14:37:10.843Z,55.49
2022-12-15T14:39:46.235Z,55.42
2022-12-15T14:42:21.732Z,57.60
2022-12-15T14:44:51.323Z,59.31
2022-12-15T14:47:34.932Z,60.57
2022-12-15T14:50:04.600Z,61.71
2022-12-15T14:52:44.043Z,63.80
2022-12-15T14:55:21.117Z,61.04
2022-12-15T14:57:52.532Z,55.00
2022-12-15T15:00:25.747Z,55.25
2022-12-15T15:03:04.067Z,61.91
2022-12-15T15:03:19.782Z,57.51
2022-12-15T15:05:54.204Z,59.51
2022-12-15T15:08:35.701Z,60.89
2022-12-15T15:11:30.511Z,62.07
2022-12-15T15:14:10.796Z,63.34
2022-12-15T15:16:38.634Z,58.48
2022-12-15T15:19:06.959Z,54.33
2022-12-15T15:21:39.094Z,55.95
2022-12-15T15:24:10.795Z,57.98
2022-12-15T15:26:40.100Z,59.68
2022-12-15T15:29:35.991Z,60.80
2022-12-15T15:32:18.896Z,62.34
2022-12-15T15:34:49.586Z,63.48
2022-12-15T15:37:23.462Z,58.80
2022-12-15T15:39:55.238Z,54.11
2022-12-15T15:42:26.526Z,55.85
2022-12-15T15:44:58.556Z,57.96
2022-12-15T15:47:27.191Z,59.87
2022-12-15T15:49:58.536Z,61.18
2022-12-15T15:52:28.673Z,62.24
2022-12-15T15:54:56.647Z,64.21
2022-12-15T15:57:24.597Z,61.16
2022-12-15T15:59:53.159Z,55.22
2022-12-15T16:02:21.146Z,55.28
2022-12-15T16:04:49.191Z,57.51
2022-12-15T16:07:24.751Z,59.46
2022-12-15T16:09:53.805Z,61.25
2022-12-15T16:12:45.269Z,63.06
2022-12-15T16:15:20.124Z,61.04
2022-12-15T16:17:48.132Z,55.06
2022-12-15T16:20:18.434Z,55.13
2022-12-15T16:22:51.281Z,57.37
2022-12-15T16:25:50.348Z,59.21
2022-12-15T16:28:24.950Z,61.09
2022-12-15T16:30:53.035Z,62.31
2022-12-15T16:33:21.420Z,63.75
2022-12-15T16:35:50.542Z,59.01
2022-12-15T16:38:32.164Z,53.99
2022-12-15T16:41:08.255Z,55.69
2022-12-15T16:43:39.179Z,57.94
2022-12-15T16:46:14.694Z,59.50
2022-12-15T16:48:43.369Z,60.59
2022-12-15T16:51:35.221Z,61.93
2022-12-15T16:54:03.234Z,63.51
2022-12-15T16:56:31.161Z,60.14
2022-12-15T16:59:30.999Z,54.82
2022-12-15T17:01:47.734Z,55.71
2022-12-15T17:04:16.726Z,57.76
2022-12-15T17:06:44.927Z,59.46
2022-12-15T17:09:22.436Z,60.79
2022-12-15T17:11:51.955Z,62.08
2022-12-15T17:14:19.741Z,64.07
2022-12-15T17:16:47.678Z,61.39
2022-12-15T17:19:20.888Z,55.58
2022-12-15T17:21:53.235Z,55.28
2022-12-15T17:24:24.480Z,57.41
2022-12-15T17:26:55.976Z,59.14
2022-12-15T17:29:26.981Z,60.57
2022-12-15T17:31:54.868Z,61.66
2022-12-15T17:34:31.003Z,63.49
2022-12-15T17:37:02.252Z,61.88
2022-12-15T17:39:33.915Z,55.73
2022-12-15T17:42:02.929Z,55.12
2022-12-15T17:44:37.509Z,57.28
2022-12-15T17:47:08.714Z,59.06
2022-12-15T17:49:38.360Z,60.86
2022-12-15T17:52:30.296Z,62.18
2022-12-15T17:54:58.607Z,64.11
2022-12-15T17:57:26.779Z,60.04
2022-12-15T17:59:54.688Z,54.46
2022-12-15T18:02:22.757Z,55.22
2022-12-15T18:04:50.896Z,57.46
2022-12-15T18:07:22.209Z,59.25
2022-12-15T18:09:51.443Z,60.57
2022-12-15T18:12:25.554Z,61.68
2022-12-15T18:14:54.847Z,63.60
2022-12-15T18:17:23.814Z,60.74
2022-12-15T18:19:51.630Z,54.78
2022-12-15T18:22:24.152Z,55.23
2022-12-15T18:24:53.812Z,57.44
2022-12-15T18:27:29.386Z,59.38
2022-12-15T18:29:57.206Z,60.70
2022-12-15T18:32:27.076Z,61.63
2022-12-15T18:34:55.327Z,63.34
2022-12-15T18:37:28.210Z,62.08
2022-12-15T18:39:59.522Z,55.95
2022-12-15T18:42:32.026Z,55.30
2022-12-15T18:45:00.627Z,57.72
2022-12-15T18:47:28.502Z,59.65
2022-12-15T18:49:56.351Z,61.46
2022-12-15T18:52:27.592Z,63.32
2022-12-15T18:54:57.878Z,62.17
2022-12-15T18:57:35.888Z,56.27
2022-12-15T19:00:24.501Z,55.60
2022-12-15T19:02:54.399Z,57.93
2022-12-15T19:05:43.928Z,59.67
2022-12-15T19:08:20.238Z,61.10
2022-12-15T19:10:59.983Z,62.27
2022-12-15T19:13:36.289Z,63.55
2022-12-15T19:16:07.120Z,58.51
2022-12-15T19:18:53.365Z,54.08
2022-12-15T19:21:47.594Z,55.78
2022-12-15T19:24:59.942Z,58.20
2022-12-15T19:27:27.816Z,60.02
2022-12-15T19:29:55.863Z,61.35
2022-12-15T19:32:24.142Z,62.34
2022-12-15T19:34:52.211Z,64.11
2022-12-15T19:37:26.757Z,61.18
2022-12-15T19:39:56.463Z,54.04
2022-12-15T19:42:31.176Z,54.44
2022-12-15T19:45:01.522Z,57.03
2022-12-15T19:47:29.948Z,59.20
2022-12-15T19:49:57.751Z,60.78
2022-12-15T19:52:26.576Z,62.09
2022-12-15T19:54:54.558Z,64.20
2022-12-15T19:57:22.461Z,61.38
2022-12-15T19:59:50.286Z,54.68
2022-12-15T20:02:20.454Z,55.21
2022-12-15T20:04:48.785Z,57.50
2022-12-15T20:07:29.757Z,58.99
2022-12-15T20:09:58.218Z,60.59
2022-12-15T20:12:26.108Z,61.78
2022-12-15T20:14:53.871Z,63.70
2022-12-15T20:17:21.697Z,61.61
2022-12-15T20:19:49.451Z,55.74
2022-12-15T20:22:19.222Z,54.80
2022-12-15T20:24:47.424Z,57.06
2022-12-15T20:27:19.202Z,59.08
2022-12-15T20:29:47.116Z,60.75
2022-12-15T20:32:19.571Z,61.91
2022-12-15T20:34:47.902Z,63.96
2022-12-15T20:37:26.977Z,61.96
2022-12-15T20:39:57.616Z,54.14
2022-12-15T20:42:25.705Z,53.71
2022-12-15T20:44:54.070Z,56.45
2022-12-15T20:47:25.633Z,58.77
2022-12-15T20:49:55.037Z,60.72
2022-12-15T20:52:26.384Z,62.05
2022-12-15T20:54:54.916Z,63.59
2022-12-15T20:57:22.727Z,62.18
2022-12-15T20:59:50.635Z,56.07
2022-12-15T21:02:22.514Z,55.12
2022-12-15T21:04:51.353Z,57.35
2022-12-15T21:07:19.906Z,59.42
2022-12-15T21:09:47.820Z,61.20
2022-12-15T21:12:22.800Z,62.74
2022-12-15T21:14:51.103Z,63.71
2022-12-15T21:17:22.269Z,58.56
2022-12-15T21:19:50.213Z,54.11
2022-12-15T21:22:24.177Z,55.84
2022-12-15T21:24:54.740Z,58.02
2022-12-15T21:27:22.966Z,60.03
2022-12-15T21:29:52.844Z,61.55
2022-12-15T21:32:21.113Z,63.97
2022-12-15T21:34:49.912Z,62.57
2022-12-15T21:37:31.638Z,57.10
2022-12-15T21:39:59.632Z,55.35
2022-12-15T21:42:27.452Z,57.43
2022-12-15T21:44:55.276Z,59.04
2022-12-15T21:47:47.825Z,60.17
2022-12-15T21:50:17.494Z,61.95
2022-12-15T21:52:46.178Z,64.22
2022-12-15T21:55:27.080Z,61.77
2022-12-15T21:57:55.685Z,54.63
2022-12-15T22:00:25.237Z,54.23
2022-12-15T22:02:53.868Z,56.42
2022-12-15T22:05:30.263Z,58.37
2022-12-15T22:08:00.660Z,60.28
2022-12-15T22:10:28.540Z,61.18
2022-12-15T22:12:59.830Z,63.68
2022-12-15T22:15:28.677Z,62.83
2022-12-15T22:17:56.545Z,57.05
2022-12-15T22:20:25.191Z,55.58
2022-12-15T22:22:52.977Z,58.17
2022-12-15T22:25:25.873Z,61.04
2022-12-15T22:27:54.982Z,63.14
2022-12-15T22:30:26.961Z,58.94
2022-12-15T22:32:54.829Z,55.32
2022-12-15T22:35:26.004Z,57.83
2022-12-15T22:37:54.017Z,59.79
2022-12-15T22:40:23.881Z,61.19
2022-12-15T22:42:55.701Z,62.52
2022-12-15T22:45:24.206Z,64.11
2022-12-15T22:47:53.182Z,59.70
2022-12-15T22:50:25.950Z,54.14
2022-12-15T22:52:54.946Z,55.01
2022-12-15T22:55:24.306Z,57.15
2022-12-15T22:57:59.985Z,58.72
2022-12-15T23:00:27.803Z,60.33
2022-12-15T23:05:26.054Z,63.51
2022-12-15T23:07:54.197Z,61.32
2022-12-15T23:10:41.203Z,55.37
2022-12-15T23:13:08.943Z,54.65
2022-12-15T23:15:55.285Z,56.89
2022-12-15T23:18:23.135Z,58.93
2022-12-15T23:20:51.714Z,60.31
2022-12-15T23:23:19.988Z,61.67
2022-12-15T23:25:47.728Z,63.48
2022-12-15T23:28:15.543Z,59.83
2022-12-15T23:30:49.713Z,54.61
2022-12-15T23:33:18.493Z,49.90
2022-12-15T23:35:47.034Z,45.64
2022-12-15T23:38:14.934Z,42.61
2022-12-15T23:40:52.539Z,40.11
2022-12-15T23:43:22.473Z,41.04
2022-12-15T23:46:03.056Z,44.46
2022-12-15T23:48:37.995Z,47.80
2022-12-15T23:51:17.718Z,50.40
2022-12-15T23:53:47.693Z,52.72
2022-12-15T23:56:19.148Z,54.57
2022-12-15T23:58:49.486Z,55.90
